Latest Weather Observations for Inner Beacon

IDQ60801

Issued at 1:02 am EST Monday 6 July 2015 (issued every 30 minutes, with the page automatically refreshed every 10 minutes)

About weather observations | Map of weather stations | Latest weather observations for QLD | Other Formats
Station Details ID: 040926 Name: INNER RECIPROCAL MARKER Lat: -27.26 Lon: 153.24 Height: 20.0 m
Data from the previous 72 hours. | See also: Recent months for locations in Queensland
Date/Time
EST
Temp
°C
App
Temp
°C
Dew
Point
Rel
Hum
%
Delta-T
°C
Wind Press
QNH
hPa
Press
MSL
hPa
Rain
since 9 am
mm
Dir
 
Spd
km/h
Gust
km/h
Spd
kts
Gust
kts
06/01:00am - - - - - NNW 19 22 10 12 - - -
06/12:30am - - - - - NW 20 24 11 13 - - -
06/12:00am - - - - - NNW 19 22 10 12 - - -
 
Date/Time
EST
Temp
°C
App
Temp
°C
Dew
Point
Rel
Hum
%
Delta-T
°C
Wind Press
QNH
hPa
Press
MSL
hPa
Rain
since 9 am
mm
Dir
 
Spd
km/h
Gust
km/h
Spd
kts
Gust
kts
05/11:30pm - - - - - NNW 17 17 9 9 - - -
05/11:00pm - - - - - NNW 19 22 10 12 - - -
05/10:30pm - - - - - NNW 19 20 10 11 - - -
05/10:00pm - - - - - NNW 19 20 10 11 - - -
05/09:30pm - - - - - NNW 20 22 11 12 - - -
05/09:00pm - - - - - N 19 20 10 11 - - -
05/08:30pm - - - - - N 20 24 11 13 - - -
05/08:00pm - - - - - N 22 26 12 14 - - -
05/07:30pm - - - - - N 22 26 12 14 - - -
05/07:00pm - - - - - N 20 24 11 13 - - -
05/06:30pm - - - - - N 20 22 11 12 - - -
05/06:00pm - - - - - N 17 19 9 10 - - -
05/05:30pm - - - - - N 13 15 7 8 - - -
05/05:00pm - - - - - N 7 9 4 5 - - -
05/04:30pm - - - - - NNE 6 9 3 5 - - -
05/04:00pm - - - - - NE 7 7 4 4 - - -
05/03:30pm - - - - - NE 7 9 4 5 - - -
05/03:00pm - - - - - NNE 6 7 3 4 - - -
05/02:30pm - - - - - NNW 6 6 3 3 - - -
05/02:00pm - - - - - NNE 9 11 5 6 - - -
05/01:30pm - - - - - NNE 9 11 5 6 - - -
05/01:00pm - - - - - N 7 9 4 5 - - -
05/12:30pm - - - - - NNW 6 7 3 4 - - -
05/12:00pm - - - - - NW 4 6 2 3 - - -
05/11:30am - - - - - NW 4 6 2 3 - - -
05/11:00am - - - - - NW 6 6 3 3 - - -
05/10:30am - - - - - WSW 6 7 3 4 - - -
05/10:00am - - - - - SW 11 13 6 7 - - -
05/09:30am - - - - - SW 11 15 6 8 - - -
05/09:00am - - - - - SSW 9 11 5 6 - - -
05/08:30am - - - - - SW 17 19 9 10 - - -
05/08:00am - - - - - SW 17 19 9 10 - - -
05/07:30am - - - - - SW 17 20 9 11 - - -
05/07:00am - - - - - SW 19 20 10 11 - - -
05/06:30am - - - - - SW 17 20 9 11 - - -
05/06:00am - - - - - SSW 17 19 9 10 - - -
05/05:30am - - - - - SW 15 17 8 9 - - -
05/05:00am - - - - - SSW 13 17 7 9 - - -
05/04:30am - - - - - SSW 15 17 8 9 - - -
05/04:00am - - - - - SSW 11 15 6 8 - - -
05/03:30am - - - - - SW 11 13 6 7 - - -
05/03:00am - - - - - SSW 11 11 6 6 - - -
05/02:30am - - - - - SSW 7 7 4 4 - - -
05/02:00am - - - - - SW 7 7 4 4 - - -
05/01:30am - - - - - WSW 9 11 5 6 - - -
05/01:00am - - - - - WSW 9 9 5 5 - - -
05/12:30am - - - - - WSW 6 7 3 4 - - -
05/12:00am - - - - - WSW 7 9 4 5 - - -
 
Date/Time
EST
Temp
°C
App
Temp
°C
Dew
Point
Rel
Hum
%
Delta-T
°C
Wind Press
QNH
hPa
Press
MSL
hPa
Rain
since 9 am
mm
Dir
 
Spd
km/h
Gust
km/h
Spd
kts
Gust
kts
04/11:30pm - - - - - WSW 6 6 3 3 - - -
04/11:00pm - - - - - NW 4 6 2 3 - - -
04/10:30pm - - - - - NW 7 9 4 5 - - -
04/10:00pm - - - - - NW 7 9 4 5 - - -
04/09:30pm - - - - - NW 9 11 5 6 - - -
04/09:00pm - - - - - NW 11 11 6 6 - - -
04/08:30pm - - - - - NNW 6 6 3 3 - - -
04/08:00pm - - - - - CALM 0 4 0 2 - - -
04/07:30pm - - - - - CALM 0 0 0 0 - - -
04/07:00pm - - - - - CALM 0 0 0 0 - - -
04/06:30pm - - - - - CALM 0 0 0 0 - - -
04/06:00pm - - - - - CALM 0 0 0 0 - - -
04/05:30pm - - - - - CALM 0 0 0 0 - - -
04/05:00pm - - - - - NE 2 2 1 1 - - -
04/04:30pm - - - - - NNE 4 6 2 3 - - -
04/04:00pm - - - - - NE 2 4 1 2 - - -
04/03:30pm - - - - - CALM 0 0 0 0 - - -
04/03:00pm - - - - - CALM 0 0 0 0 - - -
04/02:30pm - - - - - CALM 0 0 0 0 - - -
04/02:00pm - - - - - WSW 4 4 2 2 - - -
04/01:30pm - - - - - WSW 6 7 3 4 - - -
04/01:00pm - - - - - SSW 7 9 4 5 - - -
04/12:30pm - - - - - SW 9 11 5 6 - - -
04/12:00pm - - - - - SSW 9 11 5 6 - - -
04/11:30am - - - - - S 15 20 8 11 - - -
04/11:00am - - - - - SSW 15 19 8 10 - - -
04/10:30am - - - - - SW 17 19 9 10 - - -
04/10:00am - - - - - SSW 15 19 8 10 - - -
04/09:30am - - - - - SW 17 22 9 12 - - -
04/09:00am - - - - - SW 20 22 11 12 - - -
04/08:30am - - - - - SSW 20 24 11 13 - - -
04/08:00am - - - - - SSW 20 24 11 13 - - -
04/07:30am - - - - - SSW 22 26 12 14 - - -
04/07:00am - - - - - SSW 24 28 13 15 - - -
04/06:30am - - - - - SSW 24 28 13 15 - - -
04/06:00am - - - - - SW 22 26 12 14 - - -
04/05:30am - - - - - SSW 26 30 14 16 - - -
04/05:00am - - - - - SSW 26 28 14 15 - - -
04/04:30am - - - - - SSW 30 35 16 19 - - -
04/04:00am - - - - - SSW 33 37 18 20 - - -
04/03:30am - - - - - SSW 32 37 17 20 - - -
04/03:00am - - - - - SSW 28 32 15 17 - - -
04/02:30am - - - - - SW 22 26 12 14 - - -
04/02:00am - - - - - SW 20 24 11 13 - - -
04/01:30am - - - - - SW 17 19 9 10 - - -
04/01:00am - - - - - SSW 19 22 10 12 - - -
04/12:30am - - - - - SSW 22 26 12 14 - - -
04/12:00am - - - - - SSW 22 24 12 13 - - -
 
Date/Time
EST
Temp
°C
App
Temp
°C
Dew
Point
Rel
Hum
%
Delta-T
°C
Wind Press
QNH
hPa
Press
MSL
hPa
Rain
since 9 am
mm
Dir
 
Spd
km/h
Gust
km/h
Spd
kts
Gust
kts
03/11:30pm - - - - - SSW 20 24 11 13 - - -
03/11:00pm - - - - - SSW 17 20 9 11 - - -
03/10:30pm - - - - - SSW 19 22 10 12 - - -
03/10:00pm - - - - - SSW 20 22 11 12 - - -
03/09:30pm - - - - - S 20 24 11 13 - - -
03/09:00pm - - - - - S 24 28 13 15 - - -
03/08:30pm - - - - - SSW 24 32 13 17 - - -
03/08:00pm - - - - - SSW 22 28 12 15 - - -
03/07:30pm - - - - - S 24 30 13 16 - - -
03/07:00pm - - - - - S 26 32 14 17 - - -
03/06:30pm - - - - - S 24 28 13 15 - - -
03/06:00pm - - - - - S 24 28 13 15 - - -
03/05:30pm - - - - - SSE 24 30 13 16 - - -
03/05:00pm - - - - - SSE 22 26 12 14 - - -
03/04:30pm - - - - - SSE 24 28 13 15 - - -
03/04:00pm - - - - - SSE 20 24 11 13 - - -
03/03:30pm - - - - - SSE 24 30 13 16 - - -
03/03:00pm - - - - - SSE 26 30 14 16 - - -
03/02:30pm - - - - - SSE 24 30 13 16 - - -
03/02:00pm - - - - - SSE 28 32 15 17 - - -
03/01:30pm - - - - - SSE 26 30 14 16 - - -
03/01:00pm - - - - - S 20 28 11 15 - - -
03/12:30pm - - - - - SSW 22 28 12 15 - - -
03/12:00pm - - - - - S 22 26 12 14 - - -
03/11:30am - - - - - SSW 22 28 12 15 - - -
03/11:00am - - - - - SSW 26 33 14 18 - - -
03/10:30am - - - - - SSW 26 32 14 17 - - -
03/10:00am - - - - - SSW 26 32 14 17 - - -
03/09:30am - - - - - SSW 30 33 16 18 - - -
03/09:00am - - - - - SSW 28 33 15 18 - - -
03/08:30am - - - - - SW 28 32 15 17 - - -
03/08:00am - - - - - SSW 28 33 15 18 - - -
03/07:30am - - - - - SSW 30 33 16 18 - - -
03/07:00am - - - - - SW 32 37 17 20 - - -
03/06:30am - - - - - SW 32 35 17 19 - - -
03/06:00am - - - - - SW 32 35 17 19 - - -
03/05:30am - - - - - SW 30 35 16 19 - - -
03/05:00am - - - - - SW 32 39 17 21 - - -
03/04:30am - - - - - SSW 32 37 17 20 - - -
03/04:00am - - - - - SW 32 35 17 19 - - -
03/03:30am - - - - - SW 30 35 16 19 - - -
03/03:00am - - - - - SW 32 37 17 20 - - -
03/02:30am - - - - - WSW 24 30 13 16 - - -
03/02:00am - - - - - WSW 26 30 14 16 - - -
03/01:30am - - - - - WSW 28 35 15 19 - - -

Other Formats:

Comma delimited format used in spreadsheet applications
http://www.bom.gov.au/fwo/IDQ60801/IDQ60801.94590.axf

JavaScript Object Notation format (JSON) in row-major order
http://www.bom.gov.au/fwo/IDQ60801/IDQ60801.94590.json